createdAt,value
2022-09-26T00:01:37.987Z,7.43
2022-09-26T00:04:32.587Z,19.35
2022-09-26T00:07:00.863Z,8.75
2022-09-26T00:09:28.972Z,7.65
2022-09-26T00:11:56.924Z,9.40
2022-09-26T00:14:27.529Z,8.82
2022-09-26T00:19:23.519Z,8.40
2022-09-26T00:21:51.407Z,6.60
2022-09-26T00:24:19.617Z,8.60
2022-09-26T00:26:47.264Z,6.85
2022-09-26T00:29:14.914Z,7.37
2022-09-26T00:31:46.012Z,10.80
2022-09-26T00:34:16.455Z,7.95
2022-09-26T00:36:44.456Z,8.85
2022-09-26T00:39:14.359Z,6.40
2022-09-26T00:41:42.457Z,5.87
2022-09-26T00:44:43.953Z,10.57
2022-09-26T00:47:46.451Z,6.75
2022-09-26T00:50:29.059Z,6.90
2022-09-26T00:53:02.859Z,9.05
2022-09-26T00:55:36.344Z,9.45
2022-09-26T00:58:52.067Z,5.43
2022-09-26T01:01:20.775Z,7.32
2022-09-26T01:03:50.346Z,6.35
2022-09-26T01:06:18.827Z,6.00
2022-09-26T01:08:53.968Z,7.55
2022-09-26T01:11:22.799Z,6.82
2022-09-26T01:13:54.566Z,6.93
2022-09-26T01:16:24.056Z,4.87
2022-09-26T01:18:51.936Z,8.15
2022-09-26T01:21:48.776Z,6.80
2022-09-26T01:24:48.133Z,5.82
2022-09-26T01:27:24.499Z,7.40
2022-09-26T01:30:05.715Z,4.62
2022-09-26T01:32:58.296Z,6.75
2022-09-26T01:35:39.158Z,4.70
2022-09-26T01:38:25.067Z,5.23
2022-09-26T01:40:53.057Z,8.70
2022-09-26T01:43:52.752Z,4.45
2022-09-26T01:46:56.819Z,5.20
2022-09-26T01:49:46.821Z,4.95
2022-09-26T01:52:50.284Z,6.57
2022-09-26T01:55:23.896Z,4.53
2022-09-26T01:58:10.133Z,8.70
2022-09-26T02:00:41.850Z,5.00
2022-09-26T02:03:17.226Z,8.73
2022-09-26T02:05:52.907Z,10.05
2022-09-26T02:08:27.929Z,4.65
2022-09-26T02:11:07.974Z,5.18
2022-09-26T02:13:43.748Z,5.80
2022-09-26T02:16:19.544Z,8.23
2022-09-26T02:18:57.089Z,5.28
2022-09-26T02:21:25.092Z,5.05
2022-09-26T02:23:54.475Z,4.82
2022-09-26T02:26:23.979Z,6.20
2022-09-26T02:28:52.601Z,6.45
2022-09-26T02:31:24.593Z,4.65
2022-09-26T02:33:54.071Z,5.97
2022-09-26T02:36:24.122Z,5.35
2022-09-26T02:38:53.361Z,6.15
2022-09-26T02:41:43.374Z,6.87
2022-09-26T02:44:45.739Z,5.37
2022-09-26T02:47:32.987Z,5.37
2022-09-26T02:50:25.573Z,8.23
2022-09-26T02:53:19.165Z,6.07
2022-09-26T02:56:17.719Z,5.68
2022-09-26T02:59:10.271Z,6.72
2022-09-26T03:01:55.053Z,6.78
2022-09-26T03:04:55.407Z,7.53
2022-09-26T03:07:46.318Z,6.67
2022-09-26T03:10:15.021Z,6.35
2022-09-26T03:12:45.188Z,5.53
2022-09-26T03:15:14.509Z,5.32
2022-09-26T03:17:47.728Z,6.05
2022-09-26T03:20:21.691Z,5.65
2022-09-26T03:22:49.739Z,9.70
2022-09-26T03:25:24.632Z,4.78
2022-09-26T03:27:53.996Z,5.87
2022-09-26T03:30:23.373Z,9.95
2022-09-26T03:32:51.923Z,5.90
2022-09-26T03:35:19.454Z,6.18
2022-09-26T03:37:48.091Z,8.40
2022-09-26T03:40:16.091Z,6.10
2022-09-26T03:42:46.838Z,5.18
2022-09-26T03:45:15.025Z,4.65
2022-09-26T03:47:44.131Z,5.10
2022-09-26T03:50:14.130Z,4.90
2022-09-26T03:52:42.670Z,6.70
2022-09-26T03:55:10.210Z,6.85
2022-09-26T03:57:37.707Z,5.53
2022-09-26T04:00:08.445Z,10.50
2022-09-26T04:02:44.479Z,8.10
2022-09-26T04:05:13.106Z,6.40
2022-09-26T04:07:40.842Z,5.75
2022-09-26T04:10:11.052Z,6.45
2022-09-26T04:12:39.952Z,6.37
2022-09-26T04:15:08.208Z,5.55
2022-09-26T04:17:36.455Z,5.20
2022-09-26T04:20:05.049Z,6.32
2022-09-26T04:22:33.653Z,5.60
2022-09-26T04:25:01.266Z,5.93
2022-09-26T04:27:30.612Z,6.10
2022-09-26T04:29:58.208Z,5.75
2022-09-26T04:32:26.282Z,4.85
2022-09-26T04:34:58.407Z,5.75
2022-09-26T04:37:25.960Z,5.53
2022-09-26T04:39:53.803Z,13.62
2022-09-26T04:42:22.133Z,5.95
2022-09-26T04:44:49.688Z,6.60
2022-09-26T04:47:17.769Z,6.32
2022-09-26T04:49:47.019Z,7.22
2022-09-26T04:52:15.231Z,6.68
2022-09-26T04:54:43.059Z,5.78
2022-09-26T04:57:19.354Z,6.40
2022-09-26T04:59:47.577Z,6.00
2022-09-26T05:02:15.802Z,7.10
2022-09-26T05:04:43.606Z,5.72
2022-09-26T05:07:11.991Z,5.40
2022-09-26T05:09:40.031Z,6.07
2022-09-26T05:12:07.664Z,7.87
2022-09-26T05:14:36.582Z,8.75
2022-09-26T05:17:04.712Z,9.10
2022-09-26T05:19:32.980Z,6.93
2022-09-26T05:22:02.206Z,7.82
2022-09-26T05:24:49.262Z,12.15
2022-09-26T05:27:18.659Z,7.32
2022-09-26T05:29:46.641Z,8.77
2022-09-26T05:32:16.229Z,6.72
2022-09-26T05:34:43.893Z,8.30
2022-09-26T05:37:12.581Z,7.10
2022-09-26T05:39:59.078Z,8.05
2022-09-26T05:42:27.579Z,6.18
2022-09-26T05:44:55.155Z,7.78
2022-09-26T05:47:23.497Z,8.43
2022-09-26T05:49:51.361Z,7.32
2022-09-26T05:52:19.051Z,6.62
2022-09-26T05:54:46.645Z,9.02
2022-09-26T05:57:19.103Z,12.18
2022-09-26T05:59:46.982Z,13.32
2022-09-26T06:02:20.660Z,10.73
2022-09-26T06:04:49.478Z,9.30
2022-09-26T06:07:18.829Z,8.85
2022-09-26T06:09:46.943Z,9.45
2022-09-26T06:12:14.771Z,10.32
2022-09-26T06:14:46.826Z,8.85
2022-09-26T06:17:14.661Z,7.00
2022-09-26T06:19:44.513Z,10.70
2022-09-26T06:22:12.114Z,10.35
2022-09-26T06:24:39.697Z,11.70
2022-09-26T06:27:10.949Z,13.55
2022-09-26T06:29:39.287Z,8.50
2022-09-26T06:32:06.935Z,9.45
2022-09-26T06:34:35.921Z,10.15
2022-09-26T06:37:04.689Z,11.85
2022-09-26T06:39:37.039Z,9.88
2022-09-26T06:42:07.486Z,8.32
2022-09-26T06:44:35.333Z,10.05
2022-09-26T06:47:03.236Z,9.20
2022-09-26T06:49:31.559Z,17.02
2022-09-26T06:52:01.940Z,8.10
2022-09-26T06:54:29.620Z,9.40
2022-09-26T06:56:57.403Z,11.30
2022-09-26T06:59:25.151Z,10.52
2022-09-26T07:01:54.337Z,10.23
2022-09-26T07:04:27.374Z,10.07
2022-09-26T07:06:58.355Z,9.68
2022-09-26T07:09:31.173Z,9.82
2022-09-26T07:12:16.479Z,8.85
2022-09-26T07:14:44.504Z,11.75
2022-09-26T07:17:18.181Z,9.32
2022-09-26T07:19:51.942Z,12.25
2022-09-26T07:22:19.864Z,13.00
2022-09-26T07:24:50.285Z,11.07
2022-09-26T07:27:18.219Z,16.50
2022-09-26T07:29:47.282Z,10.48
2022-09-26T07:32:16.065Z,9.53
2022-09-26T07:34:43.998Z,8.75
2022-09-26T07:37:11.999Z,7.95
2022-09-26T07:39:40.194Z,10.10
2022-09-26T07:42:09.700Z,8.15
2022-09-26T07:47:43.954Z,11.43
2022-09-26T07:50:17.726Z,8.80
2022-09-26T07:52:47.519Z,11.25
2022-09-26T07:55:22.461Z,9.10
2022-09-26T07:57:53.464Z,9.23
2022-09-26T08:00:21.596Z,10.93
2022-09-26T08:02:52.827Z,10.57
2022-09-26T08:05:20.830Z,10.25
2022-09-26T08:07:49.410Z,12.88
2022-09-26T08:10:22.033Z,12.32
2022-09-26T08:12:51.947Z,11.00
2022-09-26T08:15:20.417Z,12.00
2022-09-26T08:17:48.917Z,12.18
2022-09-26T08:20:16.790Z,9.73
2022-09-26T08:22:44.316Z,11.10
2022-09-26T08:25:12.642Z,9.90
2022-09-26T08:27:43.595Z,10.18
2022-09-26T08:30:11.744Z,9.45
2022-09-26T08:32:39.537Z,12.27
2022-09-26T08:35:14.928Z,10.88
2022-09-26T08:37:44.230Z,9.55
2022-09-26T08:40:32.406Z,9.50
2022-09-26T08:43:16.286Z,13.45
2022-09-26T08:46:31.794Z,9.25
2022-09-26T08:49:16.634Z,10.02
2022-09-26T08:51:49.601Z,10.43
2022-09-26T08:54:22.245Z,11.50
2022-09-26T08:56:55.717Z,12.02
2022-09-26T08:59:27.879Z,11.12
2022-09-26T09:02:02.320Z,10.30
2022-09-26T09:04:44.638Z,9.55
2022-09-26T09:07:24.597Z,14.98
2022-09-26T09:09:59.363Z,11.05
2022-09-26T09:12:43.117Z,11.32
2022-09-26T09:15:49.681Z,10.88
2022-09-26T09:18:54.937Z,9.90
2022-09-26T09:21:30.189Z,8.70
2022-09-26T09:23:58.780Z,9.68
2022-09-26T09:29:58.038Z,9.10
2022-09-26T09:32:35.313Z,9.10
2022-09-26T09:35:04.391Z,11.70
2022-09-26T09:37:44.049Z,9.82
2022-09-26T09:40:31.988Z,10.30
2022-09-26T09:43:18.235Z,9.18
2022-09-26T09:45:51.449Z,10.05
2022-09-26T09:48:19.871Z,9.48
2022-09-26T09:51:12.907Z,9.48
2022-09-26T09:54:24.530Z,10.88
2022-09-26T10:00:22.277Z,10.65
2022-09-26T10:03:19.104Z,9.98
2022-09-26T10:05:51.697Z,10.25
2022-09-26T10:08:28.666Z,10.65
2022-09-26T10:11:07.944Z,10.80
2022-09-26T10:13:42.710Z,11.23
2022-09-26T10:16:15.338Z,10.80
2022-09-26T10:19:03.613Z,10.35
2022-09-26T10:21:36.923Z,11.35
2022-09-26T10:24:07.218Z,10.90
2022-09-26T10:26:37.255Z,11.12
2022-09-26T10:29:21.899Z,11.23
2022-09-26T10:31:56.393Z,12.02
2022-09-26T10:34:28.122Z,14.25
2022-09-26T10:36:57.038Z,12.88
2022-09-26T10:39:48.621Z,11.80
2022-09-26T10:42:22.396Z,13.15
2022-09-26T10:44:57.267Z,12.82
2022-09-26T10:47:31.040Z,13.93
2022-09-26T10:50:11.962Z,13.27
2022-09-26T10:52:49.705Z,12.55
2022-09-26T10:55:24.807Z,13.27
2022-09-26T10:57:56.880Z,12.40
2022-09-26T11:00:43.663Z,11.95
2022-09-26T11:03:16.375Z,13.07
2022-09-26T11:05:57.770Z,13.85
2022-09-26T11:08:34.415Z,13.93
2022-09-26T11:11:08.967Z,11.27
2022-09-26T11:13:50.072Z,11.57
2022-09-26T11:19:22.296Z,13.02
2022-09-26T11:21:51.461Z,12.20
2022-09-26T11:24:28.915Z,13.82
2022-09-26T11:27:19.440Z,11.80
2022-09-26T11:30:02.225Z,12.13
2022-09-26T11:32:38.783Z,11.25
2022-09-26T11:35:17.780Z,11.15
2022-09-26T11:38:09.642Z,11.50
2022-09-26T11:40:52.263Z,12.48
2022-09-26T11:43:39.543Z,13.55
2022-09-26T11:46:35.087Z,11.43
2022-09-26T11:49:16.061Z,15.35
2022-09-26T11:51:51.301Z,12.10
2022-09-26T11:54:33.906Z,11.88
2022-09-26T11:57:08.677Z,11.65
2022-09-26T12:00:01.850Z,11.70
2022-09-26T12:02:56.173Z,14.70
2022-09-26T12:05:38.226Z,13.27
2022-09-26T12:08:21.797Z,11.57
2022-09-26T12:11:24.676Z,11.80
2022-09-26T12:14:09.340Z,12.07
2022-09-26T12:16:58.805Z,12.88
2022-09-26T12:19:40.924Z,13.30
2022-09-26T12:22:31.063Z,11.73
2022-09-26T12:25:11.269Z,12.18
2022-09-26T12:27:58.801Z,11.77
2022-09-26T12:30:40.392Z,12.45
2022-09-26T12:33:08.134Z,12.57
2022-09-26T12:35:43.874Z,12.23
2022-09-26T12:38:28.457Z,13.43
2022-09-26T12:41:40.751Z,12.48
2022-09-26T12:44:23.501Z,12.50
2022-09-26T12:47:09.474Z,12.07
2022-09-26T12:49:55.128Z,12.98
2022-09-26T12:52:42.231Z,19.45
2022-09-26T12:55:33.122Z,15.93
2022-09-26T12:58:06.431Z,11.85
2022-09-26T13:00:43.138Z,13.30
2022-09-26T13:03:35.526Z,13.10
2022-09-26T13:06:23.164Z,11.73
2022-09-26T13:08:53.936Z,12.57
2022-09-26T13:11:49.163Z,11.63
2022-09-26T13:14:38.753Z,12.75
2022-09-26T13:17:19.851Z,11.55
2022-09-26T13:19:59.121Z,12.65
2022-09-26T13:22:47.815Z,13.07
2022-09-26T13:25:19.956Z,12.07
2022-09-26T13:28:05.270Z,14.50
2022-09-26T13:30:36.586Z,12.55
2022-09-26T13:33:20.733Z,12.55
2022-09-26T13:35:52.012Z,12.45
2022-09-26T13:38:39.154Z,11.65
2022-09-26T13:41:22.739Z,15.48
2022-09-26T13:44:03.484Z,20.30
2022-09-26T13:46:46.262Z,12.35
2022-09-26T13:49:34.023Z,11.77
2022-09-26T13:52:27.810Z,12.93
2022-09-26T13:55:03.320Z,11.55
2022-09-26T13:57:39.695Z,10.43
2022-09-26T14:00:35.711Z,10.40
2022-09-26T14:03:12.885Z,10.25
2022-09-26T14:05:44.104Z,10.52
2022-09-26T14:08:43.032Z,10.10
2022-09-26T14:11:19.666Z,10.82
2022-09-26T14:13:48.653Z,11.48
2022-09-26T14:16:28.773Z,10.52
2022-09-26T14:19:05.077Z,10.02
2022-09-26T14:21:57.319Z,10.18
2022-09-26T14:24:41.562Z,11.63
2022-09-26T14:27:12.005Z,10.32
2022-09-26T14:29:39.815Z,9.85
2022-09-26T14:32:10.456Z,12.48
2022-09-26T14:34:49.252Z,15.73
2022-09-26T14:37:25.693Z,10.95
2022-09-26T14:40:14.530Z,9.82
2022-09-26T14:42:42.352Z,11.20
2022-09-26T14:45:16.579Z,12.55
2022-09-26T14:47:49.171Z,11.20
2022-09-26T14:50:24.994Z,10.88
2022-09-26T14:52:57.997Z,12.18
2022-09-26T14:55:27.111Z,11.07
2022-09-26T14:58:15.629Z,10.95
2022-09-26T15:00:48.239Z,12.57
2022-09-26T15:03:19.542Z,10.52
2022-09-26T15:05:48.012Z,9.55
2022-09-26T15:08:32.911Z,9.20
2022-09-26T15:11:02.616Z,10.45
2022-09-26T15:13:36.245Z,10.73
2022-09-26T15:16:12.818Z,36.38
2022-09-26T15:18:45.239Z,82.88
2022-09-26T15:21:44.684Z,65.20
2022-09-26T15:24:41.965Z,52.95
2022-09-26T15:27:20.122Z,20.15
2022-09-26T15:29:54.721Z,10.40
2022-09-26T15:32:26.908Z,9.70
2022-09-26T15:34:56.922Z,12.02
2022-09-26T15:37:26.139Z,17.45
2022-09-26T15:39:53.715Z,12.73
2022-09-26T15:42:53.702Z,18.55
2022-09-26T15:45:34.395Z,10.57
2022-09-26T15:51:07.475Z,10.27
2022-09-26T15:53:41.008Z,13.00
2022-09-26T15:56:13.870Z,11.20
2022-09-26T15:59:02.014Z,17.20
2022-09-26T16:01:31.516Z,10.73
2022-09-26T16:04:16.763Z,10.80
2022-09-26T16:06:56.712Z,12.60
2022-09-26T16:09:38.883Z,12.13
2022-09-26T16:12:15.479Z,11.18
2022-09-26T16:14:58.698Z,10.95
2022-09-26T16:17:28.956Z,10.77
2022-09-26T16:20:01.704Z,10.82
2022-09-26T16:22:45.614Z,10.60
2022-09-26T16:25:23.051Z,11.43
2022-09-26T16:27:58.166Z,9.45
2022-09-26T16:30:27.172Z,12.15
2022-09-26T16:32:59.358Z,10.63
2022-09-26T16:35:29.680Z,10.80
2022-09-26T16:38:01.646Z,16.90
2022-09-26T16:40:31.764Z,34.38
2022-09-26T16:43:35.151Z,34.35
2022-09-26T16:46:14.871Z,19.70
2022-09-26T16:48:42.766Z,17.95
2022-09-26T16:51:13.967Z,16.83
2022-09-26T16:53:47.118Z,11.85
2022-09-26T16:56:18.000Z,14.07
2022-09-26T16:58:51.402Z,13.48
2022-09-26T17:01:38.022Z,12.65
2022-09-26T17:04:11.769Z,14.15
2022-09-26T17:06:39.837Z,10.00
2022-09-26T17:09:17.547Z,12.13
2022-09-26T17:11:47.833Z,10.65
2022-09-26T17:14:22.397Z,11.97
2022-09-26T17:16:55.247Z,10.43
2022-09-26T17:19:25.144Z,10.88
2022-09-26T17:21:53.430Z,12.07
2022-09-26T17:24:25.685Z,11.57
2022-09-26T17:26:59.413Z,13.07
2022-09-26T17:29:42.942Z,15.73
2022-09-26T17:32:33.279Z,13.07
2022-09-26T17:35:12.565Z,15.65
2022-09-26T17:37:40.473Z,20.75
2022-09-26T17:40:20.838Z,21.80
2022-09-26T17:42:50.920Z,22.10
2022-09-26T17:45:19.584Z,20.45
2022-09-26T17:47:47.583Z,21.67
2022-09-26T17:50:26.439Z,27.50
2022-09-26T17:52:54.319Z,24.98
2022-09-26T17:55:24.558Z,27.02
2022-09-26T17:57:52.298Z,23.70
2022-09-26T18:00:21.131Z,24.55
2022-09-26T18:02:52.884Z,20.80
2022-09-26T18:05:22.639Z,47.20
2022-09-26T18:07:53.326Z,24.13
2022-09-26T18:10:33.191Z,21.20
2022-09-26T18:13:12.965Z,21.20
2022-09-26T18:15:41.586Z,22.42
2022-09-26T18:18:14.496Z,28.92
2022-09-26T18:20:42.938Z,23.90
2022-09-26T18:23:16.427Z,22.55
2022-09-26T18:25:47.234Z,17.73
2022-09-26T18:28:17.594Z,19.42
2022-09-26T18:30:49.570Z,22.02
2022-09-26T18:33:19.595Z,17.62
2022-09-26T18:35:48.877Z,20.00
2022-09-26T18:38:17.042Z,19.17
2022-09-26T18:40:54.822Z,25.67
2022-09-26T18:43:25.185Z,19.80
2022-09-26T18:45:53.055Z,18.90
2022-09-26T18:48:20.592Z,20.52
2022-09-26T18:50:49.106Z,19.10
2022-09-26T18:53:19.693Z,18.52
2022-09-26T18:56:06.421Z,18.52
2022-09-26T18:58:35.632Z,24.25
2022-09-26T19:01:26.480Z,27.83
2022-09-26T19:03:57.426Z,36.25
2022-09-26T19:06:32.072Z,32.42
2022-09-26T19:09:02.769Z,31.33
2022-09-26T19:11:33.409Z,31.45
2022-09-26T19:14:26.920Z,33.30
2022-09-26T19:16:55.615Z,30.23
2022-09-26T19:19:24.584Z,31.80
2022-09-26T19:21:56.202Z,29.80
2022-09-26T19:24:35.471Z,29.63
2022-09-26T19:27:18.724Z,31.55
2022-09-26T19:29:57.098Z,31.80
2022-09-26T19:32:33.137Z,33.13
2022-09-26T19:35:06.080Z,27.55
2022-09-26T19:37:33.797Z,29.95
2022-09-26T19:40:01.837Z,26.75
2022-09-26T19:42:29.632Z,30.48
2022-09-26T19:44:59.210Z,30.58
2022-09-26T19:47:30.138Z,30.88
2022-09-26T19:49:57.874Z,27.13
2022-09-26T19:52:25.631Z,25.60
2022-09-26T19:54:54.532Z,25.05
2022-09-26T19:57:23.229Z,23.27
2022-09-26T19:59:51.618Z,26.48
2022-09-26T20:02:24.195Z,24.40
2022-09-26T20:04:52.255Z,22.37
2022-09-26T20:07:20.143Z,22.77
2022-09-26T20:09:47.947Z,27.05
2022-09-26T20:12:16.106Z,27.80
2022-09-26T20:14:43.672Z,23.80
2022-09-26T20:17:23.383Z,27.67
2022-09-26T20:19:57.748Z,30.45
2022-09-26T20:22:26.657Z,28.17
2022-09-26T20:24:55.817Z,26.83
2022-09-26T20:27:26.455Z,23.98
2022-09-26T20:30:14.662Z,23.95
2022-09-26T20:32:42.802Z,27.15
2022-09-26T20:35:14.303Z,31.48
2022-09-26T20:37:42.749Z,26.98
2022-09-26T20:40:18.439Z,24.50
2022-09-26T20:42:50.713Z,29.33
2022-09-26T20:45:25.504Z,29.50
2022-09-26T20:47:53.378Z,29.23
2022-09-26T20:50:21.480Z,32.22
2022-09-26T20:52:49.536Z,28.58
2022-09-26T20:55:19.301Z,27.37
2022-09-26T20:57:48.038Z,27.70
2022-09-26T21:00:21.041Z,25.65
2022-09-26T21:02:52.408Z,27.05
2022-09-26T21:05:24.522Z,29.33
2022-09-26T21:07:54.340Z,26.40
2022-09-26T21:10:33.020Z,23.42
2022-09-26T21:13:01.684Z,25.58
2022-09-26T21:15:31.475Z,24.05
2022-09-26T21:18:01.011Z,25.42
2022-09-26T21:20:32.159Z,26.00
2022-09-26T21:23:02.004Z,27.80
2022-09-26T21:25:31.925Z,27.87
2022-09-26T21:28:15.629Z,31.27
2022-09-26T21:30:43.727Z,29.80
2022-09-26T21:33:13.611Z,30.75
2022-09-26T21:35:41.757Z,33.80
2022-09-26T21:38:10.277Z,34.72
2022-09-26T21:40:40.399Z,32.63
2022-09-26T21:43:14.001Z,36.50
2022-09-26T21:45:46.255Z,35.50
2022-09-26T21:48:15.288Z,35.80
2022-09-26T21:50:57.598Z,35.90
2022-09-26T21:53:51.573Z,38.67
2022-09-26T21:56:25.743Z,34.17
2022-09-26T21:58:53.480Z,34.78
2022-09-26T22:01:21.951Z,33.00
2022-09-26T22:03:49.901Z,29.33
2022-09-26T22:06:17.533Z,37.35
2022-09-26T22:08:45.128Z,38.17
2022-09-26T22:11:14.319Z,32.75
2022-09-26T22:13:41.957Z,35.13
2022-09-26T22:16:11.987Z,33.65
2022-09-26T22:18:40.444Z,33.40
2022-09-26T22:21:11.015Z,51.67
2022-09-26T22:23:38.870Z,57.85
2022-09-26T22:26:07.431Z,34.58
2022-09-26T22:28:35.119Z,40.25
2022-09-26T22:31:05.119Z,43.13
2022-09-26T22:33:33.957Z,35.78
2022-09-26T22:36:01.883Z,64.72
2022-09-26T22:38:29.993Z,34.58
2022-09-26T22:40:59.800Z,56.40
2022-09-26T22:43:27.983Z,121.68
2022-09-26T22:46:03.249Z,88.12
2022-09-26T22:48:36.050Z,68.03
2022-09-26T22:51:04.698Z,109.47
2022-09-26T22:53:35.470Z,54.72
2022-09-26T22:56:08.141Z,117.50
2022-09-26T22:58:47.458Z,139.65
2022-09-26T23:01:18.683Z,195.65
2022-09-26T23:03:46.739Z,205.90
2022-09-26T23:06:14.890Z,210.80
2022-09-26T23:08:42.627Z,117.35
2022-09-26T23:11:11.981Z,83.20
2022-09-26T23:13:39.779Z,149.52
2022-09-26T23:16:13.410Z,159.95
2022-09-26T23:18:41.922Z,149.10
2022-09-26T23:21:12.157Z,73.43
2022-09-26T23:23:41.779Z,47.03
2022-09-26T23:26:31.257Z,70.53
2022-09-26T23:28:59.500Z,39.25
2022-09-26T23:31:28.586Z,42.67
2022-09-26T23:33:57.536Z,35.30
2022-09-26T23:36:25.421Z,25.42
2022-09-26T23:38:53.847Z,28.40
2022-09-26T23:41:21.746Z,27.17
2022-09-26T23:43:49.440Z,29.55
2022-09-26T23:46:17.756Z,32.80
2022-09-26T23:48:45.891Z,27.25
2022-09-26T23:51:13.904Z,87.80
2022-09-26T23:53:41.820Z,84.45
2022-09-26T23:56:12.006Z,52.97
2022-09-26T23:58:40.363Z,31.50
